Terminal Aerodrome Forecast
Issued by NWS Pueblo, CO

Home | Current Version | Previous Version | Text Only | Print | Product List | Glossary On
Versions: 1 2 3 4 5 6 7 8 9 10 11 12 13 14 15 16 17 18 19 20 21 22 23 24 25 26 27 28 29 30 31 32 33
000
FTUS45 KPUB 031120
TAFCOS
TAF
KCOS 031120Z 0312/0412 15009KT P6SM FEW022 BKN030
      TEMPO 0312/0314 3SM BR BKN022
     FM031600 14006KT P6SM FEW030
     FM032000 11007KT P6SM FEW080 SCT170
     FM040100 35007KT P6SM SCT060 SCT120
     FM040900 02005KT P6SM SKC=

USA.gov is the U.S. government's official web portal to all federal, state and local government web resources and services.